sensor_id;sensor_type;location;lat;lon;timestamp;pressure;altitude;pressure_sealevel;temperature;humidity
8416;BME280;4245;42.120;24.732;2023-07-28T00:01:57;99270.47;;;20.66;51.61
8416;BME280;4245;42.120;24.732;2023-07-28T00:04:24;99282.13;;;20.66;51.63
8416;BME280;4245;42.120;24.732;2023-07-28T00:06:51;99275.22;;;20.56;51.78
8416;BME280;4245;42.120;24.732;2023-07-28T00:09:18;99280.75;;;20.70;51.29
8416;BME280;4245;42.120;24.732;2023-07-28T00:11:44;99287.50;;;20.66;51.59
8416;BME280;4245;42.120;24.732;2023-07-28T00:14:11;99279.59;;;20.57;51.86
8416;BME280;4245;42.120;24.732;2023-07-28T00:16:38;99276.72;;;20.66;51.48
8416;BME280;4245;42.120;24.732;2023-07-28T00:19:06;99278.56;;;20.58;51.35
8416;BME280;4245;42.120;24.732;2023-07-28T00:21:33;99269.84;;;20.48;52.13
8416;BME280;4245;42.120;24.732;2023-07-28T00:23:59;99272.00;;;20.44;52.52
8416;BME280;4245;42.120;24.732;2023-07-28T00:26:26;99273.88;;;20.52;52.46
8416;BME280;4245;42.120;24.732;2023-07-28T00:28:53;99280.59;;;20.72;50.95
8416;BME280;4245;42.120;24.732;2023-07-28T00:31:20;99270.66;;;20.56;51.53
8416;BME280;4245;42.120;24.732;2023-07-28T00:33:46;99265.97;;;20.42;52.14
8416;BME280;4245;42.120;24.732;2023-07-28T00:36:15;99262.22;;;20.43;52.56
8416;BME280;4245;42.120;24.732;2023-07-28T00:38:41;99262.56;;;20.56;51.67
8416;BME280;4245;42.120;24.732;2023-07-28T00:41:08;99263.41;;;20.49;51.86
8416;BME280;4245;42.120;24.732;2023-07-28T00:43:35;99262.94;;;20.37;52.42
8416;BME280;4245;42.120;24.732;2023-07-28T00:46:02;99270.69;;;20.32;53.02
8416;BME280;4245;42.120;24.732;2023-07-28T00:48:29;99271.34;;;20.34;52.70
8416;BME280;4245;42.120;24.732;2023-07-28T00:50:55;99276.03;;;20.24;52.98
8416;BME280;4245;42.120;24.732;2023-07-28T00:53:24;99266.09;;;19.92;54.42
8416;BME280;4245;42.120;24.732;2023-07-28T00:55:52;99260.16;;;19.72;55.32
8416;BME280;4245;42.120;24.732;2023-07-28T00:58:19;99266.91;;;19.76;55.19
8416;BME280;4245;42.120;24.732;2023-07-28T01:00:46;99259.28;;;19.47;56.46
8416;BME280;4245;42.120;24.732;2023-07-28T01:03:13;99265.97;;;19.43;57.17
8416;BME280;4245;42.120;24.732;2023-07-28T01:05:45;99265.25;;;19.25;58.33
8416;BME280;4245;42.120;24.732;2023-07-28T01:08:19;99266.22;;;19.16;58.75
8416;BME280;4245;42.120;24.732;2023-07-28T01:10:49;99262.81;;;19.06;59.37
8416;BME280;4245;42.120;24.732;2023-07-28T01:13:16;99255.00;;;18.95;60.54
8416;BME280;4245;42.120;24.732;2023-07-28T01:15:43;99263.44;;;19.00;60.03
8416;BME280;4245;42.120;24.732;2023-07-28T01:18:10;99261.34;;;18.86;61.77
8416;BME280;4245;42.120;24.732;2023-07-28T01:20:38;99263.41;;;18.92;61.03
8416;BME280;4245;42.120;24.732;2023-07-28T01:23:08;99256.38;;;18.99;61.06
8416;BME280;4245;42.120;24.732;2023-07-28T01:25:53;99257.50;;;18.88;61.29
8416;BME280;4245;42.120;24.732;2023-07-28T01:28:23;99259.66;;;18.85;61.85
8416;BME280;4245;42.120;24.732;2023-07-28T01:30:50;99257.00;;;18.93;60.96
8416;BME280;4245;42.120;24.732;2023-07-28T01:33:17;99257.66;;;18.87;63.11
8416;BME280;4245;42.120;24.732;2023-07-28T01:35:44;99255.97;;;18.86;61.52
8416;BME280;4245;42.120;24.732;2023-07-28T01:38:11;99257.78;;;18.77;62.07
8416;BME280;4245;42.120;24.732;2023-07-28T01:40:38;99254.78;;;18.88;61.37
8416;BME280;4245;42.120;24.732;2023-07-28T01:43:05;99255.94;;;18.78;62.17
8416;BME280;4245;42.120;24.732;2023-07-28T01:45:33;99260.75;;;18.66;63.08
8416;BME280;4245;42.120;24.732;2023-07-28T01:48:00;99256.69;;;18.62;63.58
8416;BME280;4245;42.120;24.732;2023-07-28T01:50:27;99264.03;;;18.78;62.72
8416;BME280;4245;42.120;24.732;2023-07-28T01:52:54;99270.44;;;18.85;62.51
8416;BME280;4245;42.120;24.732;2023-07-28T01:55:21;99274.78;;;18.78;62.37
8416;BME280;4245;42.120;24.732;2023-07-28T01:57:55;99265.44;;;18.64;66.52
8416;BME280;4245;42.120;24.732;2023-07-28T02:00:22;99271.34;;;18.67;63.44
8416;BME280;4245;42.120;24.732;2023-07-28T02:02:51;99272.53;;;18.47;64.38
8416;BME280;4245;42.120;24.732;2023-07-28T02:05:18;99277.69;;;18.41;64.53
8416;BME280;4245;42.120;24.732;2023-07-28T02:07:45;99283.63;;;18.27;66.45
8416;BME280;4245;42.120;24.732;2023-07-28T02:10:13;99283.09;;;18.23;65.49
8416;BME280;4245;42.120;24.732;2023-07-28T02:12:40;99280.66;;;18.30;65.27
8416;BME280;4245;42.120;24.732;2023-07-28T02:15:07;99282.50;;;18.11;66.33
8416;BME280;4245;42.120;24.732;2023-07-28T02:17:34;99270.66;;;18.22;65.72
8416;BME280;4245;42.120;24.732;2023-07-28T02:20:03;99279.84;;;17.94;66.91
8416;BME280;4245;42.120;24.732;2023-07-28T02:22:30;99280.81;;;17.93;68.89
8416;BME280;4245;42.120;24.732;2023-07-28T02:24:57;99274.00;;;17.80;68.30
8416;BME280;4245;42.120;24.732;2023-07-28T02:27:27;99281.44;;;17.87;68.03
8416;BME280;4245;42.120;24.732;2023-07-28T02:29:54;99281.28;;;17.88;71.18
8416;BME280;4245;42.120;24.732;2023-07-28T02:32:20;99283.31;;;17.86;69.24
8416;BME280;4245;42.120;24.732;2023-07-28T02:34:47;99280.06;;;18.00;68.87
8416;BME280;4245;42.120;24.732;2023-07-28T02:37:16;99287.03;;;18.11;69.95
8416;BME280;4245;42.120;24.732;2023-07-28T02:39:43;99287.13;;;18.19;69.54
8416;BME280;4245;42.120;24.732;2023-07-28T02:42:09;99273.31;;;18.40;76.07
8416;BME280;4245;42.120;24.732;2023-07-28T02:44:36;99276.69;;;18.42;68.30
8416;BME280;4245;42.120;24.732;2023-07-28T02:47:03;99274.16;;;18.40;71.73
8416;BME280;4245;42.120;24.732;2023-07-28T02:49:30;99277.69;;;18.41;67.32
8416;BME280;4245;42.120;24.732;2023-07-28T02:51:57;99278.78;;;18.30;73.32
8416;BME280;4245;42.120;24.732;2023-07-28T02:54:25;99273.72;;;18.27;70.00
8416;BME280;4245;42.120;24.732;2023-07-28T02:56:52;99283.41;;;18.38;67.12
8416;BME280;4245;42.120;24.732;2023-07-28T02:59:20;99276.28;;;18.54;73.57
8416;BME280;4245;42.120;24.732;2023-07-28T03:01:47;99286.28;;;18.62;69.50
8416;BME280;4245;42.120;24.732;2023-07-28T03:04:13;99277.31;;;18.53;69.16
8416;BME280;4245;42.120;24.732;2023-07-28T03:06:40;99281.19;;;18.59;66.52
8416;BME280;4245;42.120;24.732;2023-07-28T03:09:07;99274.53;;;18.63;73.64
8416;BME280;4245;42.120;24.732;2023-07-28T03:11:36;99289.97;;;18.61;66.66
8416;BME280;4245;42.120;24.732;2023-07-28T03:14:03;99290.44;;;18.56;65.10
8416;BME280;4245;42.120;24.732;2023-07-28T03:16:30;99288.81;;;18.46;65.54
8416;BME280;4245;42.120;24.732;2023-07-28T03:18:56;99296.81;;;18.55;67.01
8416;BME280;4245;42.120;24.732;2023-07-28T03:21:23;99294.19;;;18.46;68.20
8416;BME280;4245;42.120;24.732;2023-07-28T03:23:50;99294.63;;;18.33;66.46
8416;BME280;4245;42.120;24.732;2023-07-28T03:26:17;99295.53;;;18.42;69.14
8416;BME280;4245;42.120;24.732;2023-07-28T03:28:45;99292.22;;;18.48;76.36
8416;BME280;4245;42.120;24.732;2023-07-28T03:31:12;99294.34;;;18.62;66.22
8416;BME280;4245;42.120;24.732;2023-07-28T03:33:38;99293.13;;;18.56;68.17
8416;BME280;4245;42.120;24.732;2023-07-28T03:36:05;99305.84;;;18.72;75.87
8416;BME280;4245;42.120;24.732;2023-07-28T03:38:32;99307.94;;;18.78;64.42
8416;BME280;4245;42.120;24.732;2023-07-28T03:40:59;99317.72;;;18.87;68.15
8416;BME280;4245;42.120;24.732;2023-07-28T03:43:25;99311.16;;;18.90;63.40
8416;BME280;4245;42.120;24.732;2023-07-28T03:45:53;99319.13;;;18.74;64.04
8416;BME280;4245;42.120;24.732;2023-07-28T03:48:20;99311.97;;;18.56;65.48
8416;BME280;4245;42.120;24.732;2023-07-28T03:50:47;99318.06;;;18.58;64.43
8416;BME280;4245;42.120;24.732;2023-07-28T03:53:14;99323.38;;;18.76;67.94
8416;BME280;4245;42.120;24.732;2023-07-28T03:55:40;99328.50;;;18.87;65.62
8416;BME280;4245;42.120;24.732;2023-07-28T03:58:07;99337.34;;;19.05;67.37
8416;BME280;4245;42.120;24.732;2023-07-28T04:00:34;99332.22;;;19.28;65.96
8416;BME280;4245;42.120;24.732;2023-07-28T04:03:02;99336.34;;;19.40;65.46
8416;BME280;4245;42.120;24.732;2023-07-28T04:05:29;99342.38;;;19.34;62.49
8416;BME280;4245;42.120;24.732;2023-07-28T04:07:56;99335.06;;;19.52;69.54
8416;BME280;4245;42.120;24.732;2023-07-28T04:10:23;99329.03;;;19.67;66.00
8416;BME280;4245;42.120;24.732;2023-07-28T04:12:49;99339.88;;;19.83;60.39
8416;BME280;4245;42.120;24.732;2023-07-28T04:15:16;99339.19;;;19.81;63.12
8416;BME280;4245;42.120;24.732;2023-07-28T04:17:43;99347.63;;;19.86;60.55
8416;BME280;4245;42.120;24.732;2023-07-28T04:20:11;99347.31;;;20.05;69.61
8416;BME280;4245;42.120;24.732;2023-07-28T04:22:38;99347.19;;;20.23;68.73
8416;BME280;4245;42.120;24.732;2023-07-28T04:25:06;99345.06;;;20.43;58.89
8416;BME280;4245;42.120;24.732;2023-07-28T04:27:33;99350.25;;;20.36;58.88
8416;BME280;4245;42.120;24.732;2023-07-28T04:30:00;99353.63;;;20.54;70.93
8416;BME280;4245;42.120;24.732;2023-07-28T04:32:26;99354.47;;;20.63;60.86
8416;BME280;4245;42.120;24.732;2023-07-28T04:34:53;99357.56;;;21.31;79.40
8416;BME280;4245;42.120;24.732;2023-07-28T04:37:21;99358.03;;;21.82;63.55
8416;BME280;4245;42.120;24.732;2023-07-28T04:39:48;99356.16;;;22.21;62.16
8416;BME280;4245;42.120;24.732;2023-07-28T04:42:15;99359.19;;;22.64;56.43
8416;BME280;4245;42.120;24.732;2023-07-28T04:44:42;99354.22;;;22.90;53.44
8416;BME280;4245;42.120;24.732;2023-07-28T04:47:11;99362.78;;;22.56;49.59
8416;BME280;4245;42.120;24.732;2023-07-28T04:49:37;99365.56;;;22.02;52.48
8416;BME280;4245;42.120;24.732;2023-07-28T04:52:05;99364.19;;;22.52;51.19
8416;BME280;4245;42.120;24.732;2023-07-28T04:54:33;99367.91;;;22.28;55.56
8416;BME280;4245;42.120;24.732;2023-07-28T04:57:00;99358.28;;;22.48;53.85
8416;BME280;4245;42.120;24.732;2023-07-28T04:59:27;99362.91;;;22.85;51.79
8416;BME280;4245;42.120;24.732;2023-07-28T05:01:53;99366.84;;;22.83;50.25
8416;BME280;4245;42.120;24.732;2023-07-28T05:04:20;99371.53;;;22.21;53.29
8416;BME280;4245;42.120;24.732;2023-07-28T05:06:47;99370.63;;;22.05;56.42
8416;BME280;4245;42.120;24.732;2023-07-28T05:09:14;99371.69;;;21.88;53.78
8416;BME280;4245;42.120;24.732;2023-07-28T05:11:42;99370.09;;;22.10;54.72
8416;BME280;4245;42.120;24.732;2023-07-28T05:14:08;99378.97;;;22.19;52.53
8416;BME280;4245;42.120;24.732;2023-07-28T05:16:35;99381.16;;;22.23;53.26
8416;BME280;4245;42.120;24.732;2023-07-28T05:19:06;99380.50;;;22.44;54.90
8416;BME280;4245;42.120;24.732;2023-07-28T05:21:33;99376.41;;;22.48;54.88
8416;BME280;4245;42.120;24.732;2023-07-28T05:24:00;99378.31;;;22.62;53.80
8416;BME280;4245;42.120;24.732;2023-07-28T05:26:27;99390.47;;;22.43;55.86
8416;BME280;4245;42.120;24.732;2023-07-28T05:28:55;99380.81;;;22.72;55.29
8416;BME280;4245;42.120;24.732;2023-07-28T05:31:22;99383.28;;;22.96;53.08
8416;BME280;4245;42.120;24.732;2023-07-28T05:33:48;99387.53;;;23.13;52.24
8416;BME280;4245;42.120;24.732;2023-07-28T05:36:15;99380.78;;;23.24;50.20
8416;BME280;4245;42.120;24.732;2023-07-28T05:38:42;99391.91;;;23.29;52.19
8416;BME280;4245;42.120;24.732;2023-07-28T05:41:09;99391.69;;;23.53;48.64
8416;BME280;4245;42.120;24.732;2023-07-28T05:43:36;99391.19;;;23.79;47.65
8416;BME280;4245;42.120;24.732;2023-07-28T05:46:04;99389.44;;;24.07;45.68
8416;BME280;4245;42.120;24.732;2023-07-28T05:48:30;99393.41;;;24.19;44.73
8416;BME280;4245;42.120;24.732;2023-07-28T05:50:57;99384.66;;;24.45;45.44
8416;BME280;4245;42.120;24.732;2023-07-28T05:53:24;99392.88;;;24.31;46.04
8416;BME280;4245;42.120;24.732;2023-07-28T05:55:52;99387.81;;;23.77;48.16
8416;BME280;4245;42.120;24.732;2023-07-28T05:58:19;99401.75;;;23.89;47.18
8416;BME280;4245;42.120;24.732;2023-07-28T06:00:46;99397.56;;;23.86;48.37
8416;BME280;4245;42.120;24.732;2023-07-28T06:03:15;99391.53;;;24.20;47.20
8416;BME280;4245;42.120;24.732;2023-07-28T06:05:42;99395.28;;;24.40;45.56
8416;BME280;4245;42.120;24.732;2023-07-28T06:08:09;99396.44;;;24.52;46.81
8416;BME280;4245;42.120;24.732;2023-07-28T06:10:36;99395.91;;;25.06;47.49
8416;BME280;4245;42.120;24.732;2023-07-28T06:13:03;99396.34;;;25.65;42.52
8416;BME280;4245;42.120;24.732;2023-07-28T06:15:30;99398.31;;;25.84;41.42
8416;BME280;4245;42.120;24.732;2023-07-28T06:18:00;99400.84;;;25.92;40.80
8416;BME280;4245;42.120;24.732;2023-07-28T06:20:28;99402.69;;;25.85;40.52
8416;BME280;4245;42.120;24.732;2023-07-28T06:22:55;99402.78;;;25.30;43.28
8416;BME280;4245;42.120;24.732;2023-07-28T06:25:22;99400.09;;;25.08;43.00
8416;BME280;4245;42.120;24.732;2023-07-28T06:27:48;99398.81;;;25.04;42.83
8416;BME280;4245;42.120;24.732;2023-07-28T06:30:15;99394.88;;;25.35;43.26
8416;BME280;4245;42.120;24.732;2023-07-28T06:32:42;99389.72;;;25.87;40.80
8416;BME280;4245;42.120;24.732;2023-07-28T06:35:09;99386.91;;;26.15;40.06
8416;BME280;4245;42.120;24.732;2023-07-28T06:37:37;99381.53;;;26.35;39.50
8416;BME280;4245;42.120;24.732;2023-07-28T06:40:05;99382.38;;;26.49;39.04
8416;BME280;4245;42.120;24.732;2023-07-28T06:42:34;99382.66;;;26.67;39.44
8416;BME280;4245;42.120;24.732;2023-07-28T06:47:36;99378.25;;;26.86;38.98
8416;BME280;4245;42.120;24.732;2023-07-28T06:50:03;99373.22;;;26.76;39.27
8416;BME280;4245;42.120;24.732;2023-07-28T06:52:30;99372.97;;;26.64;39.55
8416;BME280;4245;42.120;24.732;2023-07-28T06:54:58;99373.25;;;26.96;38.90
8416;BME280;4245;42.120;24.732;2023-07-28T06:57:25;99370.94;;;27.06;38.54
8416;BME280;4245;42.120;24.732;2023-07-28T06:59:52;99370.25;;;26.64;37.87
8416;BME280;4245;42.120;24.732;2023-07-28T07:02:19;99368.81;;;26.75;38.24
8416;BME280;4245;42.120;24.732;2023-07-28T07:04:46;99372.38;;;27.02;38.42
8416;BME280;4245;42.120;24.732;2023-07-28T07:07:13;99368.84;;;26.95;38.16
8416;BME280;4245;42.120;24.732;2023-07-28T07:09:40;99362.97;;;27.11;38.59
8416;BME280;4245;42.120;24.732;2023-07-28T07:12:09;99366.25;;;27.59;36.98
8416;BME280;4245;42.120;24.732;2023-07-28T07:14:36;99357.03;;;27.53;36.54
8416;BME280;4245;42.120;24.732;2023-07-28T07:17:03;99361.50;;;27.92;35.19
8416;BME280;4245;42.120;24.732;2023-07-28T07:19:30;99362.66;;;28.09;35.86
8416;BME280;4245;42.120;24.732;2023-07-28T07:21:57;99362.19;;;28.26;36.53
8416;BME280;4245;42.120;24.732;2023-07-28T07:24:23;99364.16;;;28.05;35.55
8416;BME280;4245;42.120;24.732;2023-07-28T07:26:50;99364.94;;;28.19;35.41
8416;BME280;4245;42.120;24.732;2023-07-28T07:29:20;99367.72;;;28.44;34.73
8416;BME280;4245;42.120;24.732;2023-07-28T07:31:47;99369.81;;;28.48;35.22
8416;BME280;4245;42.120;24.732;2023-07-28T07:34:14;99365.47;;;28.34;34.25
8416;BME280;4245;42.120;24.732;2023-07-28T07:36:41;99369.34;;;28.51;37.02
8416;BME280;4245;42.120;24.732;2023-07-28T07:39:10;99368.22;;;29.15;34.56
8416;BME280;4245;42.120;24.732;2023-07-28T07:41:36;99366.78;;;29.38;34.44
8416;BME280;4245;42.120;24.732;2023-07-28T07:44:03;99367.16;;;29.77;32.21
8416;BME280;4245;42.120;24.732;2023-07-28T07:46:32;99363.16;;;29.62;31.26
8416;BME280;4245;42.120;24.732;2023-07-28T07:49:01;99361.66;;;29.77;31.09
8416;BME280;4245;42.120;24.732;2023-07-28T07:51:31;99355.66;;;29.69;31.98
8416;BME280;4245;42.120;24.732;2023-07-28T07:53:59;99346.56;;;29.93;32.92
8416;BME280;4245;42.120;24.732;2023-07-28T07:56:26;99356.19;;;29.77;33.98
8416;BME280;4245;42.120;24.732;2023-07-28T07:58:53;99354.78;;;30.23;30.69
8416;BME280;4245;42.120;24.732;2023-07-28T08:01:20;99357.06;;;30.56;29.19
8416;BME280;4245;42.120;24.732;2023-07-28T08:03:49;99354.09;;;30.57;29.74
8416;BME280;4245;42.120;24.732;2023-07-28T08:06:15;99358.09;;;30.96;29.35
8416;BME280;4245;42.120;24.732;2023-07-28T08:08:42;99348.09;;;31.14;29.65
8416;BME280;4245;42.120;24.732;2023-07-28T08:11:10;99346.06;;;31.44;27.10
8416;BME280;4245;42.120;24.732;2023-07-28T08:13:38;99346.44;;;31.36;26.88
8416;BME280;4245;42.120;24.732;2023-07-28T08:16:05;99336.66;;;31.05;28.76
8416;BME280;4245;42.120;24.732;2023-07-28T08:18:31;99330.69;;;31.31;29.16
8416;BME280;4245;42.120;24.732;2023-07-28T08:21:00;99338.28;;;31.52;27.26
8416;BME280;4245;42.120;24.732;2023-07-28T08:23:26;99331.34;;;31.73;27.85
8416;BME280;4245;42.120;24.732;2023-07-28T08:25:53;99326.09;;;32.00;27.30
8416;BME280;4245;42.120;24.732;2023-07-28T08:28:20;99330.31;;;32.31;27.82
8416;BME280;4245;42.120;24.732;2023-07-28T08:30:54;99331.69;;;32.62;29.16
8416;BME280;4245;42.120;24.732;2023-07-28T08:33:21;99333.38;;;32.96;27.26
8416;BME280;4245;42.120;24.732;2023-07-28T08:35:48;99327.88;;;33.51;24.74
8416;BME280;4245;42.120;24.732;2023-07-28T08:38:17;99333.44;;;33.35;24.52
8416;BME280;4245;42.120;24.732;2023-07-28T08:40:44;99323.19;;;33.30;24.54
8416;BME280;4245;42.120;24.732;2023-07-28T08:43:10;99325.28;;;32.90;24.73
8416;BME280;4245;42.120;24.732;2023-07-28T08:45:37;99322.88;;;32.76;26.11
8416;BME280;4245;42.120;24.732;2023-07-28T08:48:05;99320.09;;;33.27;26.47
8416;BME280;4245;42.120;24.732;2023-07-28T08:50:32;99323.81;;;33.97;24.23
8416;BME280;4245;42.120;24.732;2023-07-28T08:52:59;99316.19;;;33.83;24.04
8416;BME280;4245;42.120;24.732;2023-07-28T08:55:27;99315.59;;;33.81;24.38
8416;BME280;4245;42.120;24.732;2023-07-28T08:57:54;99317.50;;;34.02;25.11
8416;BME280;4245;42.120;24.732;2023-07-28T09:00:23;99318.31;;;34.24;24.78
8416;BME280;4245;42.120;24.732;2023-07-28T09:02:51;99310.13;;;34.61;23.01
8416;BME280;4245;42.120;24.732;2023-07-28T09:05:18;99308.41;;;34.87;22.24
8416;BME280;4245;42.120;24.732;2023-07-28T09:07:46;99302.72;;;34.99;24.83
8416;BME280;4245;42.120;24.732;2023-07-28T09:10:13;99306.31;;;34.99;20.86
8416;BME280;4245;42.120;24.732;2023-07-28T09:12:47;99298.50;;;35.23;20.21
8416;BME280;4245;42.120;24.732;2023-07-28T09:15:14;99298.44;;;34.81;21.54
8416;BME280;4245;42.120;24.732;2023-07-28T09:17:42;99298.78;;;34.89;19.36
8416;BME280;4245;42.120;24.732;2023-07-28T09:20:14;99300.16;;;34.55;19.83
8416;BME280;4245;42.120;24.732;2023-07-28T09:22:41;99291.81;;;34.82;20.62
8416;BME280;4245;42.120;24.732;2023-07-28T09:25:13;99294.44;;;35.41;19.64
8416;BME280;4245;42.120;24.732;2023-07-28T09:27:40;99302.94;;;35.86;18.77
8416;BME280;4245;42.120;24.732;2023-07-28T09:30:09;99289.22;;;35.49;19.13
8416;BME280;4245;42.120;24.732;2023-07-28T09:32:46;99279.44;;;35.84;18.65
8416;BME280;4245;42.120;24.732;2023-07-28T09:35:14;99279.13;;;35.75;18.93
8416;BME280;4245;42.120;24.732;2023-07-28T09:37:44;99269.41;;;35.62;19.28
8416;BME280;4245;42.120;24.732;2023-07-28T09:40:14;99270.94;;;36.10;18.54
8416;BME280;4245;42.120;24.732;2023-07-28T09:42:42;99265.44;;;36.46;18.13
8416;BME280;4245;42.120;24.732;2023-07-28T09:45:11;99271.28;;;36.80;17.87
8416;BME280;4245;42.120;24.732;2023-07-28T09:47:38;99269.84;;;37.23;17.63
8416;BME280;4245;42.120;24.732;2023-07-28T09:50:07;99263.63;;;37.66;16.95
8416;BME280;4245;42.120;24.732;2023-07-28T09:52:37;99262.53;;;37.57;17.00
8416;BME280;4245;42.120;24.732;2023-07-28T09:55:08;99264.25;;;37.33;17.39
8416;BME280;4245;42.120;24.732;2023-07-28T09:57:39;99269.88;;;37.03;17.26
8416;BME280;4245;42.120;24.732;2023-07-28T10:00:08;99273.50;;;36.93;17.43
8416;BME280;4245;42.120;24.732;2023-07-28T10:02:39;99258.50;;;36.99;17.45
8416;BME280;4245;42.120;24.732;2023-07-28T10:05:06;99259.34;;;36.89;17.29
8416;BME280;4245;42.120;24.732;2023-07-28T10:07:38;99241.94;;;36.23;17.64
8416;BME280;4245;42.120;24.732;2023-07-28T10:10:08;99243.59;;;36.49;18.10
8416;BME280;4245;42.120;24.732;2023-07-28T10:12:42;99231.09;;;37.03;17.71
8416;BME280;4245;42.120;24.732;2023-07-28T10:15:13;99237.44;;;37.82;17.17
8416;BME280;4245;42.120;24.732;2023-07-28T10:17:45;99230.09;;;38.07;17.00
8416;BME280;4245;42.120;24.732;2023-07-28T10:20:27;99229.56;;;38.10;17.26
8416;BME280;4245;42.120;24.732;2023-07-28T10:23:02;99227.34;;;38.46;17.19
8416;BME280;4245;42.120;24.732;2023-07-28T10:25:32;99222.91;;;38.74;16.91
8416;BME280;4245;42.120;24.732;2023-07-28T10:28:00;99224.19;;;38.86;16.30
8416;BME280;4245;42.120;24.732;2023-07-28T10:30:35;99221.31;;;38.96;16.62
8416;BME280;4245;42.120;24.732;2023-07-28T10:33:04;99219.13;;;39.17;16.01
8416;BME280;4245;42.120;24.732;2023-07-28T10:35:31;99218.03;;;39.61;15.93
8416;BME280;4245;42.120;24.732;2023-07-28T10:38:27;99206.00;;;39.65;14.94
8416;BME280;4245;42.120;24.732;2023-07-28T10:41:05;99211.25;;;39.90;15.40
8416;BME280;4245;42.120;24.732;2023-07-28T10:43:32;99210.66;;;39.51;15.36
8416;BME280;4245;42.120;24.732;2023-07-28T10:45:59;99199.50;;;39.75;15.82
8416;BME280;4245;42.120;24.732;2023-07-28T10:48:28;99201.00;;;40.23;15.02
8416;BME280;4245;42.120;24.732;2023-07-28T10:50:54;99200.06;;;40.47;15.15
8416;BME280;4245;42.120;24.732;2023-07-28T10:53:21;99196.44;;;40.46;14.68
8416;BME280;4245;42.120;24.732;2023-07-28T10:55:48;99191.91;;;39.99;15.40
8416;BME280;4245;42.120;24.732;2023-07-28T10:58:15;99183.09;;;40.11;15.05
8416;BME280;4245;42.120;24.732;2023-07-28T11:00:42;99179.84;;;40.41;14.93
8416;BME280;4245;42.120;24.732;2023-07-28T11:03:08;99197.63;;;41.05;14.61
8416;BME280;4245;42.120;24.732;2023-07-28T11:05:37;99184.91;;;41.12;14.27
8416;BME280;4245;42.120;24.732;2023-07-28T11:08:05;99188.25;;;41.14;14.21
8416;BME280;4245;42.120;24.732;2023-07-28T11:10:33;99186.88;;;40.52;13.87
8416;BME280;4245;42.120;24.732;2023-07-28T11:13:01;99181.22;;;39.69;14.91
8416;BME280;4245;42.120;24.732;2023-07-28T11:15:29;99185.38;;;40.09;14.30
8416;BME280;4245;42.120;24.732;2023-07-28T11:17:55;99181.78;;;40.41;14.42
8416;BME280;4245;42.120;24.732;2023-07-28T11:20:24;99173.63;;;40.30;14.62
8416;BME280;4245;42.120;24.732;2023-07-28T11:22:54;99179.66;;;40.51;14.29
8416;BME280;4245;42.120;24.732;2023-07-28T11:25:22;99183.94;;;40.11;14.55
8416;BME280;4245;42.120;24.732;2023-07-28T11:27:50;99174.22;;;39.52;14.72
8416;BME280;4245;42.120;24.732;2023-07-28T11:30:18;99163.97;;;39.29;14.53
8416;BME280;4245;42.120;24.732;2023-07-28T11:32:47;99159.81;;;39.50;14.36
8416;BME280;4245;42.120;24.732;2023-07-28T11:35:15;99158.69;;;39.28;15.13
8416;BME280;4245;42.120;24.732;2023-07-28T11:37:45;99147.34;;;39.24;15.33
8416;BME280;4245;42.120;24.732;2023-07-28T11:40:15;99146.34;;;39.95;14.85
8416;BME280;4245;42.120;24.732;2023-07-28T11:42:45;99149.19;;;38.62;15.14
8416;BME280;4245;42.120;24.732;2023-07-28T11:45:13;99142.84;;;38.81;15.13
8416;BME280;4245;42.120;24.732;2023-07-28T11:47:52;99140.22;;;38.94;15.10
8416;BME280;4245;42.120;24.732;2023-07-28T11:50:22;99134.19;;;39.11;15.18
8416;BME280;4245;42.120;24.732;2023-07-28T11:52:49;99129.56;;;39.25;14.76
8416;BME280;4245;42.120;24.732;2023-07-28T11:55:18;99127.56;;;39.07;15.40
8416;BME280;4245;42.120;24.732;2023-07-28T11:57:46;99115.91;;;39.47;15.71
8416;BME280;4245;42.120;24.732;2023-07-28T12:00:13;99130.69;;;40.18;14.67
8416;BME280;4245;42.120;24.732;2023-07-28T12:02:42;99121.25;;;39.44;15.21
8416;BME280;4245;42.120;24.732;2023-07-28T12:05:12;99120.63;;;40.03;15.02
8416;BME280;4245;42.120;24.732;2023-07-28T12:07:40;99113.13;;;40.04;14.55
8416;BME280;4245;42.120;24.732;2023-07-28T12:10:07;99112.75;;;40.24;14.29
8416;BME280;4245;42.120;24.732;2023-07-28T12:12:47;99116.19;;;40.80;14.23
8416;BME280;4245;42.120;24.732;2023-07-28T12:15:22;99100.03;;;41.46;13.96
8416;BME280;4245;42.120;24.732;2023-07-28T12:18:09;99100.50;;;41.84;13.89
8416;BME280;4245;42.120;24.732;2023-07-28T12:20:38;99095.56;;;41.81;13.68
8416;BME280;4245;42.120;24.732;2023-07-28T12:23:05;99098.34;;;41.81;13.95
8416;BME280;4245;42.120;24.732;2023-07-28T12:25:32;99090.44;;;41.96;13.35
8416;BME280;4245;42.120;24.732;2023-07-28T12:28:01;99092.41;;;41.96;13.72
8416;BME280;4245;42.120;24.732;2023-07-28T12:30:27;99090.94;;;42.21;13.86
8416;BME280;4245;42.120;24.732;2023-07-28T12:32:54;99088.13;;;42.52;13.65
8416;BME280;4245;42.120;24.732;2023-07-28T12:35:21;99086.59;;;42.37;13.02
8416;BME280;4245;42.120;24.732;2023-07-28T12:37:50;99079.91;;;41.93;13.69
8416;BME280;4245;42.120;24.732;2023-07-28T12:40:17;99072.00;;;41.87;13.77
8416;BME280;4245;42.120;24.732;2023-07-28T12:42:45;99069.88;;;41.70;13.53
8416;BME280;4245;42.120;24.732;2023-07-28T12:45:14;99070.34;;;41.00;13.83
8416;BME280;4245;42.120;24.732;2023-07-28T12:47:42;99065.75;;;41.32;13.81
8416;BME280;4245;42.120;24.732;2023-07-28T12:50:09;99065.94;;;41.71;13.90
8416;BME280;4245;42.120;24.732;2023-07-28T12:52:37;99061.16;;;41.13;13.65
8416;BME280;4245;42.120;24.732;2023-07-28T12:55:05;99054.25;;;40.43;14.41
8416;BME280;4245;42.120;24.732;2023-07-28T12:57:32;99051.84;;;41.18;13.98
8416;BME280;4245;42.120;24.732;2023-07-28T12:59:59;99047.34;;;41.08;14.31
8416;BME280;4245;42.120;24.732;2023-07-28T13:02:27;99042.69;;;41.53;13.77
8416;BME280;4245;42.120;24.732;2023-07-28T13:04:54;99046.03;;;42.08;13.77
8416;BME280;4245;42.120;24.732;2023-07-28T13:07:20;99051.16;;;42.46;13.22
8416;BME280;4245;42.120;24.732;2023-07-28T13:09:48;99051.28;;;42.72;13.20
8416;BME280;4245;42.120;24.732;2023-07-28T13:12:15;99049.69;;;42.97;13.10
8416;BME280;4245;42.120;24.732;2023-07-28T13:14:42;99046.59;;;42.98;13.36
8416;BME280;4245;42.120;24.732;2023-07-28T13:17:09;99039.38;;;43.14;12.93